Windsor, CA (95492)

11:59 AM PDT on August 30, 2015 (GMT -0700)
Windsor Fire | | Change Station
CLOSE
Current Station
Personal Weather Station
Location: Windsor, CA
Elevation: 128 ft
Nearby Weather Stations

Elev 128 ft 38.54 °N, 122.80 °W | Updated 5 minutes ago

Clear
Clear
77.4 °F
Feels Like 78 °F
N
10.0
Wind Variable Wind from WNW
Gusts 16.0 mph

Today
High -- | Low -- °F
--% Chance of Precip.
Yesterday
High -- | Low -- °F
Precip. -- in
6:38 AM 7:44 PM
Full, 98% visible
Pressure 29.99 in
Visibility 10.0 miles
Clouds Clear
Heat Index 78 °F
Dew Point 52 °F
Humidity 41%
Rainfall 0.00 in
Snow Depth Not available.
UV 9 out of 12
Pollen 6.40 out of 12
Air Quality Not available.
Flu Activity Not available.
METAR KSTS 301853Z 32006KT 10SM CLR 28/09 A3001 RMK AO2 SLP155 T02780094
Pressure 29.99 in
Visibility 10.0 miles
Clouds Clear
Heat Index 78 °F
Dew Point 52 °F
Humidity 41%
Rainfall 0.00 in
Snow Depth Not available.
UV 9 out of 12
Pollen 6.40 out of 12
Air Quality Not available.
Flu Activity Not available.
METAR KSTS 301853Z 32006KT 10SM CLR 28/09 A3001 RMK AO2 SLP155 T02780094

10-Day Weather Forecast

×

Almanac

Astronomy

Aug. 30, 2015 Rise Set
Actual Time
Civil Twilight
Nautical Twilight
Astronomical Twilight
Moon
Length of Visible Light
Length of Day
Tomorrow will be .
, % of the Moon is Illuminated

Today's Extremes

State Highs State Lows

Community

WunderPhotos

Upload Photos

1,851,031 photos uploaded!

WunderBlogs® & News

Nearby

Air Quality

  Air Quality AQ Index Pollutant
Not available.

Snow Depth

Station Depth Elevation

Earthquake Activity

City Distance Mag. Time & Date
Minimum magnitude displayed is 2.5.

Coastal Water Temperatures

Place Temperature

Stations

Nearby Weather Stations

Station Location Temp. Windchill Dew Point Humidity Wind Precip. Elev Updated Type